Latest Weather Observations for Norfolk Island

IDN60801

Issued at 5:32 pm EDT Saturday 25 February 2017 (issued every 30 minutes, with the page automatically refreshed every 10 minutes)

About weather observations | Map of weather stations | Latest weather observations for NSW | Other Formats
Station Details ID: 200288 Name: NORFOLK ISLAND AERO Lat: -29.04 Lon: 167.94 Height: 111.73 m
Data from the previous 72 hours. | See also: Recent months at Norfolk Island
Date/Time
EDT
Temp
°C
App
Temp
°C
Dew
Point
°C
Rel
Hum
%
Delta-T
°C
Wind Press
QNH
hPa
Press
MSL
hPa
Rain since
9am
mm
Dir  Spd
km/h
Gust
km/h
Spd
kts
Gust
kts
25/05:30pm 22.4 21.1 16.7 70 3.5 ESE 19 28 10 15 1013.5 1013.0 0.0
25/05:00pm 23.4 22.3 16.4 64 4.3 ESE 17 26 9 14 1013.3 1012.8 0.0
25/04:30pm 23.7 22.0 17.1 66 4.1 E 22 33 12 18 1013.1 1012.6 0.0
25/04:00pm 24.3 23.0 16.9 63 4.6 ESE 19 28 10 15 1013.0 1012.5 0.0
25/03:30pm 23.6 22.2 16.6 65 4.3 ESE 19 30 10 16 1013.0 1012.5 0.0
25/03:00pm 23.6 21.8 17.0 66 4.1 SE 22 33 12 18 1013.0 1012.5 0.0
25/02:30pm 24.1 22.2 17.7 67 4.0 ESE 24 35 13 19 1013.2 1012.7 0.0
25/02:00pm 23.7 22.1 17.4 68 3.9 SE 22 33 12 18 1013.5 1013.0 0.0
25/01:30pm 24.1 22.2 16.8 63 4.5 ESE 22 32 12 17 1013.9 1013.3 0.0
25/01:00pm 23.0 21.4 17.4 70 3.5 ESE 22 32 12 17 1014.0 1013.4 0.0
25/12:30pm 24.6 23.1 17.6 65 4.4 ESE 22 35 12 19 1014.2 1013.7 0.0
25/12:00pm 23.4 21.7 17.1 67 3.9 ESE 22 32 12 17 1014.5 1014.0 0.0
25/11:30am 23.2 22.0 17.1 68 3.8 ESE 19 28 10 15 1014.7 1014.2 0.0
25/11:00am 23.6 22.1 16.2 63 4.5 ESE 19 28 10 15 1014.8 1014.3 0.0
25/10:30am 23.4 21.4 15.6 61 4.7 ESE 20 30 11 16 1014.9 1014.4 0.0
25/10:00am 24.0 22.6 16.5 63 4.6 ESE 19 28 10 15 1015.0 1014.5 0.0
25/09:30am 23.5 22.5 16.5 65 4.3 ESE 17 26 9 14 1015.0 1014.5 0.0
25/09:00am 23.3 22.0 16.8 67 4.0 ESE 19 28 10 15 1014.9 1014.4 0.0
25/08:30am 23.8 22.9 16.8 65 4.3 ESE 17 26 9 14 1014.9 1014.4 0.0
25/08:00am 22.5 20.7 15.5 64 4.2 ESE 19 26 10 14 1015.0 1014.5 0.0
25/07:30am 21.4 20.7 16.5 73 3.0 SE 15 20 8 11 1014.9 1014.4 0.0
25/07:00am 22.2 21.5 16.5 70 3.5 ESE 15 19 8 10 1014.8 1014.3 0.0
25/06:30am 21.5 21.3 15.7 69 3.5 ESE 11 15 6 8 1014.8 1014.3 0.0
25/06:00am 21.1 20.4 16.3 74 2.9 SE 15 24 8 13 1014.7 1014.2 0.0
25/05:30am 20.5 20.0 15.8 74 2.8 ESE 13 22 7 12 1014.5 1014.0 0.0
25/05:00am 20.4 19.7 15.5 73 2.9 ESE 13 19 7 10 1014.4 1013.9 0.0
25/04:30am 20.5 20.0 16.0 75 2.7 ESE 13 20 7 11 1014.3 1013.8 0.0
25/04:00am 20.3 19.3 15.6 74 2.8 ESE 15 24 8 13 1014.2 1013.7 0.0
25/03:30am 20.3 19.4 15.8 75 2.7 ESE 15 19 8 10 1014.3 1013.8 0.0
25/03:00am 20.3 19.2 15.2 72 3.0 ESE 15 26 8 14 1014.2 1013.7 0.0
25/02:30am 20.3 19.5 15.2 72 3.0 ESE 13 22 7 12 1014.3 1013.8 0.0
25/02:00am 20.2 19.4 15.1 72 3.0 E 13 20 7 11 1014.5 1014.0 0.0
25/01:30am 20.6 20.2 16.1 75 2.7 ESE 13 20 7 11 1014.7 1014.2 0.0
25/01:00am 20.2 19.6 15.7 75 2.7 ESE 13 19 7 10 1015.0 1014.5 0.0
25/12:30am 20.5 19.8 15.5 73 3.0 E 13 19 7 10 1015.3 1014.8 0.0
25/12:00am 20.4 19.0 15.5 73 2.9 E 17 22 9 12 1015.5 1015.0 0.0
 
Date/Time
EDT
Temp
°C
App
Temp
°C
Dew
Point
°C
Rel
Hum
%
Delta-T
°C
Wind Press
QNH
hPa
Press
MSL
hPa
Rain since
9am
mm
Dir  Spd
km/h
Gust
km/h
Spd
kts
Gust
kts
24/11:30pm 20.6 19.1 15.2 71 3.2 E 17 22 9 12 1015.8 1015.3 0.0
24/11:00pm 20.7 19.5 15.1 70 3.3 E 15 24 8 13 1016.0 1015.5 0.0
24/10:30pm 20.9 20.0 15.9 73 3.0 E 15 22 8 12 1016.3 1015.8 0.0
24/10:00pm 21.1 20.6 15.8 71 3.2 ESE 13 19 7 10 1016.4 1015.9 0.0
24/09:30pm 21.0 20.5 15.8 72 3.1 E 13 19 7 10 1016.5 1016.0 0.0
24/09:00pm 21.3 20.9 16.2 72 3.1 ESE 13 19 7 10 1016.4 1015.9 0.0
24/08:30pm 21.0 19.7 15.8 72 3.1 E 17 24 9 13 1016.4 1015.9 0.0
24/08:00pm 21.2 20.4 16.2 73 3.0 ESE 15 26 8 14 1016.4 1015.9 0.0
24/07:30pm 21.2 19.5 15.7 71 3.3 ESE 19 30 10 16 1016.2 1015.7 0.0
24/07:00pm 21.2 20.7 15.9 72 3.2 ESE 13 20 7 11 1016.0 1015.5 0.0
24/06:30pm 21.5 19.8 15.7 69 3.5 ESE 19 30 10 16 1015.8 1015.3 0.0
24/06:00pm 21.9 20.1 15.4 66 3.9 ESE 19 30 10 16 1015.7 1015.2 0.0
24/05:30pm 22.5 20.9 16.1 67 3.9 ESE 19 30 10 16 1015.5 1015.0 0.0
24/05:00pm 23.3 21.7 16.4 65 4.2 ESE 20 28 11 15 1015.5 1015.0 0.0
24/04:30pm 23.4 21.0 15.4 60 4.8 SE 22 33 12 18 1015.4 1014.9 0.0
24/04:00pm 23.6 21.2 16.4 64 4.4 ESE 24 33 13 18 1015.4 1014.9 0.0
24/03:30pm 23.8 21.7 16.1 62 4.7 SE 22 32 12 17 1015.6 1015.1 0.0
24/03:00pm 24.4 21.8 15.9 59 5.2 SE 24 33 13 18 1015.7 1015.2 0.0
24/02:30pm 23.5 20.9 15.9 62 4.6 SE 24 32 13 17 1015.9 1015.4 0.0
24/02:00pm 23.3 20.8 16.1 64 4.4 SE 24 37 13 20 1016.1 1015.6 0.0
24/01:30pm 23.6 21.1 16.2 63 4.5 SE 24 37 13 20 1016.4 1015.9 0.0
24/01:00pm 25.4 22.6 16.3 57 5.6 ESE 26 37 14 20 1016.5 1016.0 0.0
24/12:30pm 24.9 22.5 16.3 59 5.3 ESE 24 37 13 20 1016.8 1016.3 0.0
24/12:00pm 24.4 21.8 16.0 59 5.1 ESE 24 37 13 20 1017.0 1016.5 0.0
24/11:30am 24.2 20.7 14.6 55 5.7 ESE 26 37 14 20 1017.3 1016.8 0.0
24/11:00am 23.8 20.5 15.1 58 5.2 ESE 26 37 14 20 1017.5 1017.0 0.0
24/10:30am 24.1 21.0 15.5 58 5.2 ESE 26 37 14 20 1017.6 1017.1 0.0
24/10:00am 23.7 20.9 14.2 55 5.6 ESE 22 35 12 19 1017.8 1017.3 0.0
24/09:30am 23.0 20.3 15.7 63 4.4 ESE 24 33 13 18 1017.8 1017.3 0.0
24/09:00am 22.9 19.8 15.6 63 4.4 ESE 26 39 14 21 1017.7 1017.2 0.4
24/08:30am 23.2 21.1 16.1 64 4.3 ESE 22 33 12 18 1017.7 1017.2 0.4
24/08:00am 22.3 19.7 15.8 66 3.9 ESE 24 33 13 18 1017.6 1017.1 0.4
24/07:30am 21.3 19.2 16.2 72 3.1 ESE 22 35 12 19 1017.4 1016.9 0.4
24/07:00am 20.4 21.1 18.0 86 1.5 ESE 11 15 6 8 1017.4 1016.9 0.4
24/06:30am 20.1 19.6 17.0 82 1.9 ESE 15 24 8 13 1017.5 1017.0 0.2
24/06:00am 18.7 18.1 15.7 83 1.8 ESE 13 20 7 11 1017.4 1016.9 0.2
24/05:59am 18.6 17.6 15.6 83 1.8 ESE 15 20 8 11 1017.4 1016.9 0.2
24/05:39am 19.1 16.9 15.9 82 1.9 ESE 22 33 12 18 1017.4 1016.9 0.0
24/05:30am 19.5 17.4 15.1 76 2.6 ESE 20 33 11 18 1017.3 1016.8 0.0
24/05:29am 19.3 17.2 15.2 77 2.4 ESE 20 33 11 18 1017.3 1016.8 0.0
24/05:11am 18.9 16.0 16.1 84 1.7 ESE 26 39 14 21 1017.2 1016.7 0.0
24/05:00am 19.8 16.9 16.0 79 2.3 ESE 26 39 14 21 1016.9 1016.4 0.0
24/04:30am 20.8 18.4 17.4 81 2.1 ESE 26 41 14 22 1016.6 1016.1 0.0
24/04:00am 20.7 19.1 16.4 76 2.6 ESE 20 30 11 16 1016.4 1015.9 0.0
24/03:30am 20.7 19.9 17.1 80 2.2 ESE 17 26 9 14 1016.4 1015.9 0.0
24/03:00am 21.2 19.6 16.4 74 2.9 ESE 20 35 11 19 1016.6 1016.1 0.0
24/02:30am 21.1 19.5 15.9 72 3.1 ESE 19 30 10 16 1016.8 1016.3 0.0
24/02:00am 21.2 20.4 17.1 77 2.5 ESE 17 30 9 16 1016.9 1016.4 0.0
24/01:30am 21.3 20.2 16.4 73 3.0 ESE 17 30 9 16 1017.1 1016.6 0.0
24/01:00am 21.3 20.5 17.2 77 2.5 ESE 17 32 9 17 1017.3 1016.8 0.0
24/12:30am 21.2 20.0 16.2 73 3.0 ESE 17 28 9 15 1017.5 1017.0 0.0
24/12:00am 21.1 19.1 15.4 70 3.4 ESE 20 32 11 17 1017.7 1017.2 0.0
 
Date/Time
EDT
Temp
°C
App
Temp
°C
Dew
Point
°C
Rel
Hum
%
Delta-T
°C
Wind Press
QNH
hPa
Press
MSL
hPa
Rain since
9am
mm
Dir  Spd
km/h
Gust
km/h
Spd
kts
Gust
kts
23/11:30pm 21.4 19.4 15.5 69 3.5 ESE 20 30 11 16 1018.0 1017.5 0.0
23/11:00pm 21.4 19.4 15.4 68 3.6 ESE 20 35 11 19 1018.0 1017.5 0.0
23/10:30pm 20.9 20.4 16.8 77 2.5 ESE 15 22 8 12 1018.1 1017.6 0.0
23/10:00pm 21.6 20.9 16.5 73 3.1 ESE 15 26 8 14 1018.3 1017.8 0.0
23/09:30pm 21.6 19.8 15.4 68 3.7 ESE 19 30 10 16 1018.3 1017.8 0.0
23/09:00pm 21.6 20.1 15.2 67 3.8 ESE 17 28 9 15 1018.4 1017.9 0.0
23/08:30pm 21.6 20.4 16.0 70 3.4 ESE 17 30 9 16 1018.2 1017.7 0.0
23/08:00pm 21.6 20.6 15.6 68 3.6 ESE 15 20 8 11 1018.0 1017.5 0.0
23/07:30pm 21.5 20.1 15.5 68 3.6 E 17 26 9 14 1017.9 1017.4 0.0
23/07:00pm 21.5 19.5 15.5 68 3.6 ESE 20 33 11 18 1017.5 1017.0 0.0
23/06:30pm 21.8 20.3 15.3 66 3.9 ESE 17 26 9 14 1017.3 1016.8 0.0
23/06:00pm 22.0 20.3 15.7 67 3.8 ESE 19 26 10 14 1017.0 1016.5 0.0
23/05:30pm 22.6 20.7 15.2 63 4.4 ESE 19 30 10 16 1017.0 1016.5 0.0
23/05:00pm 22.9 21.4 16.2 66 4.1 ESE 19 30 10 16 1016.8 1016.3 0.0
23/04:30pm 23.7 21.9 16.0 62 4.7 ESE 20 32 11 17 1016.8 1016.3 0.0
23/04:00pm 23.7 21.6 16.3 63 4.5 ESE 22 33 12 18 1016.8 1016.3 0.0
23/03:30pm 23.5 21.4 16.3 64 4.4 ESE 22 37 12 20 1016.6 1016.1 0.0
23/03:00pm 24.5 22.5 15.4 57 5.5 ESE 20 33 11 18 1016.5 1016.0 0.0
23/02:30pm 24.2 21.3 15.0 56 5.5 ESE 24 32 13 17 1016.8 1016.3 0.0
23/02:00pm 24.9 22.5 15.3 55 5.8 ESE 22 33 12 18 1017.0 1016.5 0.0
23/01:30pm 24.9 22.6 15.7 56 5.6 ESE 22 32 12 17 1017.2 1016.7 0.0
23/01:00pm 23.2 20.4 15.4 61 4.7 ESE 24 33 13 18 1017.5 1017.0 0.0
23/12:30pm 24.3 21.4 15.2 57 5.5 SE 24 33 13 18 1017.6 1017.1 0.0
23/12:00pm 24.8 22.2 15.0 54 5.9 SE 22 33 12 18 1017.7 1017.2 0.0
23/11:30am 24.3 21.7 14.8 55 5.7 ESE 22 33 12 18 1017.8 1017.3 0.0
23/11:00am 24.5 21.9 14.8 54 5.8 SE 22 32 12 17 1017.9 1017.4 0.0
23/10:30am 24.9 21.4 13.5 49 6.7 ESE 24 33 13 18 1018.1 1017.6 0.0
23/10:00am 24.4 21.5 13.0 49 6.6 ESE 20 35 11 19 1018.4 1017.9 0.0
23/09:30am 24.3 21.9 15.3 57 5.4 ESE 22 32 12 17 1018.3 1017.8 0.0
23/09:00am 24.1 21.7 15.3 58 5.3 ESE 22 33 12 18 1018.4 1017.9 0.2
23/08:30am 24.3 21.4 15.0 56 5.6 E 24 35 13 19 1018.3 1017.8 0.2
23/08:00am 23.5 21.0 15.2 59 5.0 ESE 22 32 12 17 1017.9 1017.4 0.0
23/07:30am 22.8 20.5 14.7 60 4.8 ESE 20 30 11 16 1017.7 1017.2 0.0
23/07:00am 22.3 19.7 13.9 59 4.9 ESE 20 28 11 15 1017.4 1016.9 0.0
23/06:30am 21.5 19.9 15.1 67 3.8 E 17 26 9 14 1017.3 1016.8 0.0
23/06:00am 21.0 19.7 15.7 71 3.2 E 17 28 9 15 1017.0 1016.5 0.0
23/05:30am 20.8 19.3 15.2 70 3.3 ESE 17 28 9 15 1016.5 1016.0 0.0
23/05:00am 21.2 20.2 15.5 70 3.4 E 15 22 8 12 1016.5 1016.0 0.0
23/04:30am 21.3 19.6 15.8 71 3.3 E 19 30 10 16 1016.2 1015.7 0.0
23/04:00am 21.3 19.8 16.2 72 3.1 E 19 28 10 15 1016.0 1015.5 0.0
23/03:30am 21.1 19.7 16.5 75 2.8 E 19 26 10 14 1016.0 1015.5 0.0
23/03:00am 21.0 20.1 16.9 77 2.5 E 17 24 9 13 1016.0 1015.5 0.0
23/02:30am 20.3 20.1 17.7 85 1.6 E 15 22 8 12 1015.9 1015.4 0.0
23/02:00am 19.8 20.7 16.5 81 2.0 E 7 9 4 5 1016.2 1015.7 0.0
23/01:30am 19.8 20.1 16.1 79 2.2 E 9 11 5 6 1016.3 1015.8 0.0
23/01:00am 19.9 20.1 15.7 77 2.5 E 9 13 5 7 1016.5 1016.0 0.0
23/12:30am 20.0 20.6 15.8 77 2.5 E 7 11 4 6 1016.6 1016.1 0.0
23/12:00am 19.9 19.6 15.5 76 2.6 E 11 15 6 8 1016.7 1016.2 0.0
 
Date/Time
EDT
Temp
°C
App
Temp
°C
Dew
Point
°C
Rel
Hum
%
Delta-T
°C
Wind Press
QNH
hPa
Press
MSL
hPa
Rain since
9am
mm
Dir  Spd
km/h
Gust
km/h
Spd
kts
Gust
kts
22/11:30pm 20.2 20.5 15.9 76 2.6 E 9 15 5 8 1016.9 1016.4 0.0
22/11:00pm 20.5 20.5 16.2 76 2.6 E 11 17 6 9 1017.1 1016.6 0.0
22/10:30pm 20.7 20.6 15.9 74 2.9 E 11 15 6 8 1017.6 1017.1 0.0
22/10:00pm 21.0 21.1 16.4 75 2.8 E 11 15 6 8 1017.6 1017.1 0.0
22/09:30pm 21.3 20.9 16.2 72 3.1 E 13 20 7 11 1017.6 1017.1 0.0
22/09:00pm 21.6 21.1 16.0 70 3.4 E 13 20 7 11 1017.5 1017.0 0.0
22/08:30pm 21.8 21.3 16.9 73 3.0 E 15 22 8 12 1017.0 1016.5 0.0
22/08:00pm 21.9 21.7 17.5 76 2.7 E 15 20 8 11 1016.9 1016.4 0.0
22/07:30pm 21.8 21.3 17.8 78 2.5 E 17 20 9 11 1016.6 1016.1 0.0
22/07:00pm 22.0 22.0 18.0 78 2.5 E 15 20 8 11 1016.5 1016.0 0.0
22/06:30pm 22.3 22.0 18.3 78 2.5 E 17 24 9 13 1016.2 1015.7 0.0
22/06:00pm 22.6 21.9 18.3 76 2.7 E 19 30 10 16 1016.0 1015.5 0.0
22/05:30pm 23.5 23.3 18.6 74 3.1 E 17 24 9 13 1015.8 1015.3 0.0

Other Formats:

Comma delimited format used in spreadsheet applications
http://www.bom.gov.au/fwo/IDN60801/IDN60801.94996.axf

JavaScript Object Notation format (JSON) in row-major order
http://www.bom.gov.au/fwo/IDN60801/IDN60801.94996.json